sensor_id;sensor_type;location;lat;lon;timestamp;temperature;humidity
15625;DHT22;7912;51.376;6.126;2023-02-15T00:00:20;6.60;99.90
15625;DHT22;7912;51.376;6.126;2023-02-15T00:02:47;6.60;99.90
15625;DHT22;7912;51.376;6.126;2023-02-15T00:05:15;6.60;99.90
15625;DHT22;7912;51.376;6.126;2023-02-15T00:07:42;6.60;99.90
15625;DHT22;7912;51.376;6.126;2023-02-15T00:10:09;6.60;99.90
15625;DHT22;7912;51.376;6.126;2023-02-15T00:12:38;6.60;99.90
15625;DHT22;7912;51.376;6.126;2023-02-15T00:15:06;6.60;99.90
15625;DHT22;7912;51.376;6.126;2023-02-15T00:17:33;6.60;99.90
15625;DHT22;7912;51.376;6.126;2023-02-15T00:20:00;6.60;99.90
15625;DHT22;7912;51.376;6.126;2023-02-15T00:22:28;6.60;99.90
15625;DHT22;7912;51.376;6.126;2023-02-15T00:24:55;6.50;99.90
15625;DHT22;7912;51.376;6.126;2023-02-15T00:27:22;6.50;99.90
15625;DHT22;7912;51.376;6.126;2023-02-15T00:29:50;6.50;99.90
15625;DHT22;7912;51.376;6.126;2023-02-15T00:32:17;6.50;99.90
15625;DHT22;7912;51.376;6.126;2023-02-15T00:34:44;6.50;99.90
15625;DHT22;7912;51.376;6.126;2023-02-15T00:37:11;6.50;99.90
15625;DHT22;7912;51.376;6.126;2023-02-15T00:39:38;6.50;99.90
15625;DHT22;7912;51.376;6.126;2023-02-15T00:42:05;6.50;99.90
15625;DHT22;7912;51.376;6.126;2023-02-15T00:44:32;6.40;99.90
15625;DHT22;7912;51.376;6.126;2023-02-15T00:47:00;6.40;99.90
15625;DHT22;7912;51.376;6.126;2023-02-15T00:49:27;6.40;99.90
15625;DHT22;7912;51.376;6.126;2023-02-15T00:51:54;6.40;99.90
15625;DHT22;7912;51.376;6.126;2023-02-15T00:54:21;6.30;99.90
15625;DHT22;7912;51.376;6.126;2023-02-15T00:56:48;6.30;99.90
15625;DHT22;7912;51.376;6.126;2023-02-15T00:59:15;6.30;99.90
15625;DHT22;7912;51.376;6.126;2023-02-15T01:01:43;6.20;99.90
15625;DHT22;7912;51.376;6.126;2023-02-15T01:04:28;6.20;99.90
15625;DHT22;7912;51.376;6.126;2023-02-15T01:06:56;6.10;99.90
15625;DHT22;7912;51.376;6.126;2023-02-15T01:09:23;6.10;99.90
15625;DHT22;7912;51.376;6.126;2023-02-15T01:11:50;6.10;99.90
15625;DHT22;7912;51.376;6.126;2023-02-15T01:14:18;6.00;99.90
15625;DHT22;7912;51.376;6.126;2023-02-15T01:16:46;6.00;99.90
15625;DHT22;7912;51.376;6.126;2023-02-15T01:19:13;5.90;99.90
15625;DHT22;7912;51.376;6.126;2023-02-15T01:21:40;5.90;99.90
15625;DHT22;7912;51.376;6.126;2023-02-15T01:24:14;5.90;99.90
15625;DHT22;7912;51.376;6.126;2023-02-15T01:26:41;5.80;99.90
15625;DHT22;7912;51.376;6.126;2023-02-15T01:29:09;5.80;99.90
15625;DHT22;7912;51.376;6.126;2023-02-15T01:31:36;5.80;99.90
15625;DHT22;7912;51.376;6.126;2023-02-15T01:34:05;5.80;99.90
15625;DHT22;7912;51.376;6.126;2023-02-15T01:36:34;5.70;99.90
15625;DHT22;7912;51.376;6.126;2023-02-15T01:39:02;5.70;99.90
15625;DHT22;7912;51.376;6.126;2023-02-15T01:41:29;5.70;99.90
15625;DHT22;7912;51.376;6.126;2023-02-15T01:44:02;5.70;99.90
15625;DHT22;7912;51.376;6.126;2023-02-15T01:46:37;5.70;99.90
15625;DHT22;7912;51.376;6.126;2023-02-15T01:49:15;5.70;99.90
15625;DHT22;7912;51.376;6.126;2023-02-15T01:51:47;5.70;99.90
15625;DHT22;7912;51.376;6.126;2023-02-15T01:58:04;5.70;99.90
15625;DHT22;7912;51.376;6.126;2023-02-15T02:00:33;5.70;99.90
15625;DHT22;7912;51.376;6.126;2023-02-15T02:03:02;5.70;99.90
15625;DHT22;7912;51.376;6.126;2023-02-15T02:05:30;5.70;99.90
15625;DHT22;7912;51.376;6.126;2023-02-15T02:11:04;5.70;99.90
15625;DHT22;7912;51.376;6.126;2023-02-15T02:13:37;5.70;99.90
15625;DHT22;7912;51.376;6.126;2023-02-15T02:19:18;5.70;99.90
15625;DHT22;7912;51.376;6.126;2023-02-15T02:22:19;5.60;99.90
15625;DHT22;7912;51.376;6.126;2023-02-15T02:25:28;5.70;99.90
15625;DHT22;7912;51.376;6.126;2023-02-15T02:38:33;5.60;99.90
15625;DHT22;7912;51.376;6.126;2023-02-15T02:41:13;5.60;99.90
15625;DHT22;7912;51.376;6.126;2023-02-15T02:44:05;5.60;99.90
15625;DHT22;7912;51.376;6.126;2023-02-15T02:46:54;5.60;99.90
15625;DHT22;7912;51.376;6.126;2023-02-15T02:49:45;5.50;99.90
15625;DHT22;7912;51.376;6.126;2023-02-15T02:52:35;5.50;99.90
15625;DHT22;7912;51.376;6.126;2023-02-15T02:55:37;5.50;99.90
15625;DHT22;7912;51.376;6.126;2023-02-15T03:00:59;5.50;99.90
15625;DHT22;7912;51.376;6.126;2023-02-15T03:03:37;5.50;99.90
15625;DHT22;7912;51.376;6.126;2023-02-15T03:06:25;5.40;99.90
15625;DHT22;7912;51.376;6.126;2023-02-15T03:09:22;5.40;99.90
15625;DHT22;7912;51.376;6.126;2023-02-15T03:12:02;5.40;99.90
15625;DHT22;7912;51.376;6.126;2023-02-15T03:14:32;5.40;99.90
15625;DHT22;7912;51.376;6.126;2023-02-15T03:17:00;5.40;99.90
15625;DHT22;7912;51.376;6.126;2023-02-15T03:19:32;5.40;99.90
15625;DHT22;7912;51.376;6.126;2023-02-15T03:22:11;5.30;99.90
15625;DHT22;7912;51.376;6.126;2023-02-15T03:27:38;5.30;99.90
15625;DHT22;7912;51.376;6.126;2023-02-15T03:30:17;5.30;99.90
15625;DHT22;7912;51.376;6.126;2023-02-15T03:32:48;5.30;99.90
15625;DHT22;7912;51.376;6.126;2023-02-15T03:35:21;5.20;99.90
15625;DHT22;7912;51.376;6.126;2023-02-15T03:37:55;5.20;99.90
15625;DHT22;7912;51.376;6.126;2023-02-15T03:40:38;5.20;99.90
15625;DHT22;7912;51.376;6.126;2023-02-15T03:43:54;5.20;99.90
15625;DHT22;7912;51.376;6.126;2023-02-15T03:46:46;5.10;99.90
15625;DHT22;7912;51.376;6.126;2023-02-15T03:52:23;5.10;99.90
15625;DHT22;7912;51.376;6.126;2023-02-15T03:54:53;5.00;99.90
15625;DHT22;7912;51.376;6.126;2023-02-15T03:57:25;5.00;99.90
15625;DHT22;7912;51.376;6.126;2023-02-15T04:00:17;4.90;99.90
15625;DHT22;7912;51.376;6.126;2023-02-15T04:05:43;4.90;99.90
15625;DHT22;7912;51.376;6.126;2023-02-15T04:08:12;4.90;99.90
15625;DHT22;7912;51.376;6.126;2023-02-15T04:10:39;4.90;99.90
15625;DHT22;7912;51.376;6.126;2023-02-15T04:13:20;4.90;99.90
15625;DHT22;7912;51.376;6.126;2023-02-15T04:15:49;4.90;99.90
15625;DHT22;7912;51.376;6.126;2023-02-15T04:18:34;4.90;99.90
15625;DHT22;7912;51.376;6.126;2023-02-15T04:21:23;4.80;99.90
15625;DHT22;7912;51.376;6.126;2023-02-15T04:24:11;4.80;99.90
15625;DHT22;7912;51.376;6.126;2023-02-15T04:26:57;4.80;99.90
15625;DHT22;7912;51.376;6.126;2023-02-15T04:29:26;4.80;99.90
15625;DHT22;7912;51.376;6.126;2023-02-15T04:31:56;4.70;99.90
15625;DHT22;7912;51.376;6.126;2023-02-15T04:34:25;4.70;99.90
15625;DHT22;7912;51.376;6.126;2023-02-15T04:36:53;4.70;99.90
15625;DHT22;7912;51.376;6.126;2023-02-15T04:39:20;4.60;99.90
15625;DHT22;7912;51.376;6.126;2023-02-15T04:44:54;4.60;99.90
15625;DHT22;7912;51.376;6.126;2023-02-15T04:47:40;4.60;99.90
15625;DHT22;7912;51.376;6.126;2023-02-15T04:50:08;4.50;99.90
15625;DHT22;7912;51.376;6.126;2023-02-15T04:52:35;4.60;99.90
15625;DHT22;7912;51.376;6.126;2023-02-15T04:55:03;4.50;99.90
15625;DHT22;7912;51.376;6.126;2023-02-15T04:57:51;4.50;99.90
15625;DHT22;7912;51.376;6.126;2023-02-15T05:00:18;4.50;99.90
15625;DHT22;7912;51.376;6.126;2023-02-15T05:02:46;4.50;99.90
15625;DHT22;7912;51.376;6.126;2023-02-15T05:05:13;4.50;99.90
15625;DHT22;7912;51.376;6.126;2023-02-15T05:07:41;4.40;99.90
15625;DHT22;7912;51.376;6.126;2023-02-15T05:10:09;4.40;99.90
15625;DHT22;7912;51.376;6.126;2023-02-15T05:12:36;4.40;99.90
15625;DHT22;7912;51.376;6.126;2023-02-15T05:15:03;4.40;99.90
15625;DHT22;7912;51.376;6.126;2023-02-15T05:17:31;4.30;99.90
15625;DHT22;7912;51.376;6.126;2023-02-15T05:19:58;4.30;99.90
15625;DHT22;7912;51.376;6.126;2023-02-15T05:22:25;4.30;99.90
15625;DHT22;7912;51.376;6.126;2023-02-15T05:24:52;4.30;99.90
15625;DHT22;7912;51.376;6.126;2023-02-15T05:27:38;4.30;99.90
15625;DHT22;7912;51.376;6.126;2023-02-15T05:30:24;4.30;99.90
15625;DHT22;7912;51.376;6.126;2023-02-15T05:32:51;4.30;99.90
15625;DHT22;7912;51.376;6.126;2023-02-15T05:35:19;4.30;99.90
15625;DHT22;7912;51.376;6.126;2023-02-15T05:37:46;4.20;99.90
15625;DHT22;7912;51.376;6.126;2023-02-15T05:40:13;4.20;99.90
15625;DHT22;7912;51.376;6.126;2023-02-15T05:42:41;4.20;99.90
15625;DHT22;7912;51.376;6.126;2023-02-15T05:45:08;4.10;99.90
15625;DHT22;7912;51.376;6.126;2023-02-15T05:47:36;4.10;99.90
15625;DHT22;7912;51.376;6.126;2023-02-15T05:50:03;4.20;99.90
15625;DHT22;7912;51.376;6.126;2023-02-15T05:52:31;4.10;99.90
15625;DHT22;7912;51.376;6.126;2023-02-15T05:54:58;4.10;99.90
15625;DHT22;7912;51.376;6.126;2023-02-15T05:57:27;4.10;99.90
15625;DHT22;7912;51.376;6.126;2023-02-15T05:59:54;4.10;99.90
15625;DHT22;7912;51.376;6.126;2023-02-15T06:02:21;4.10;99.90
15625;DHT22;7912;51.376;6.126;2023-02-15T06:04:48;4.00;99.90
15625;DHT22;7912;51.376;6.126;2023-02-15T06:07:15;4.10;99.90
15625;DHT22;7912;51.376;6.126;2023-02-15T06:09:42;4.00;99.90
15625;DHT22;7912;51.376;6.126;2023-02-15T06:12:11;4.00;99.90
15625;DHT22;7912;51.376;6.126;2023-02-15T06:14:39;4.00;99.90
15625;DHT22;7912;51.376;6.126;2023-02-15T06:17:06;4.00;99.90
15625;DHT22;7912;51.376;6.126;2023-02-15T06:19:33;4.00;99.90
15625;DHT22;7912;51.376;6.126;2023-02-15T06:22:00;4.00;99.90
15625;DHT22;7912;51.376;6.126;2023-02-15T06:24:27;4.00;99.90
15625;DHT22;7912;51.376;6.126;2023-02-15T06:31:24;4.00;99.90
15625;DHT22;7912;51.376;6.126;2023-02-15T06:42:11;3.90;99.90
15625;DHT22;7912;51.376;6.126;2023-02-15T06:48:48;3.90;99.90
15625;DHT22;7912;51.376;6.126;2023-02-15T06:51:16;3.80;99.90
15625;DHT22;7912;51.376;6.126;2023-02-15T06:53:43;3.80;99.90
15625;DHT22;7912;51.376;6.126;2023-02-15T06:56:11;3.80;99.90
15625;DHT22;7912;51.376;6.126;2023-02-15T07:02:56;3.90;99.90
15625;DHT22;7912;51.376;6.126;2023-02-15T07:05:26;3.90;99.90
15625;DHT22;7912;51.376;6.126;2023-02-15T07:07:59;3.80;99.90
15625;DHT22;7912;51.376;6.126;2023-02-15T07:10:27;3.80;99.90
15625;DHT22;7912;51.376;6.126;2023-02-15T07:24:14;3.90;99.90
15625;DHT22;7912;51.376;6.126;2023-02-15T07:30:51;4.00;99.90
15625;DHT22;7912;51.376;6.126;2023-02-15T07:33:19;4.00;99.90
15625;DHT22;7912;51.376;6.126;2023-02-15T07:40:04;4.00;99.90
15625;DHT22;7912;51.376;6.126;2023-02-15T07:42:32;4.10;99.90
15625;DHT22;7912;51.376;6.126;2023-02-15T08:01:37;4.30;99.90
15625;DHT22;7912;51.376;6.126;2023-02-15T08:04:07;4.40;99.90
15625;DHT22;7912;51.376;6.126;2023-02-15T08:06:36;4.40;99.90
15625;DHT22;7912;51.376;6.126;2023-02-15T08:09:06;4.40;99.90
15625;DHT22;7912;51.376;6.126;2023-02-15T08:11:36;4.50;99.90
15625;DHT22;7912;51.376;6.126;2023-02-15T08:19:19;4.60;99.90
15625;DHT22;7912;51.376;6.126;2023-02-15T08:25:51;4.80;99.90
15625;DHT22;7912;51.376;6.126;2023-02-15T08:28:18;4.80;99.90
15625;DHT22;7912;51.376;6.126;2023-02-15T08:30:46;4.90;99.90
15625;DHT22;7912;51.376;6.126;2023-02-15T08:33:13;4.90;99.90
15625;DHT22;7912;51.376;6.126;2023-02-15T08:35:40;5.00;99.90
15625;DHT22;7912;51.376;6.126;2023-02-15T08:38:07;5.00;99.90
15625;DHT22;7912;51.376;6.126;2023-02-15T08:40:35;5.10;99.90
15625;DHT22;7912;51.376;6.126;2023-02-15T08:43:04;5.10;99.90
15625;DHT22;7912;51.376;6.126;2023-02-15T08:45:35;5.20;99.90
15625;DHT22;7912;51.376;6.126;2023-02-15T08:48:03;5.30;99.90
15625;DHT22;7912;51.376;6.126;2023-02-15T08:50:30;5.30;99.90
15625;DHT22;7912;51.376;6.126;2023-02-15T08:52:57;5.40;99.90
15625;DHT22;7912;51.376;6.126;2023-02-15T08:55:24;5.50;99.90
15625;DHT22;7912;51.376;6.126;2023-02-15T08:57:52;5.60;99.90
15625;DHT22;7912;51.376;6.126;2023-02-15T09:00:22;5.70;99.90
15625;DHT22;7912;51.376;6.126;2023-02-15T09:02:49;5.70;99.90
15625;DHT22;7912;51.376;6.126;2023-02-15T09:05:17;5.80;99.90
15625;DHT22;7912;51.376;6.126;2023-02-15T09:07:44;5.90;99.90
15625;DHT22;7912;51.376;6.126;2023-02-15T09:10:11;6.00;99.90
15625;DHT22;7912;51.376;6.126;2023-02-15T09:12:38;6.00;99.90
15625;DHT22;7912;51.376;6.126;2023-02-15T09:15:06;6.10;99.90
15625;DHT22;7912;51.376;6.126;2023-02-15T09:17:34;6.20;99.90
15625;DHT22;7912;51.376;6.126;2023-02-15T09:20:01;6.30;99.90
15625;DHT22;7912;51.376;6.126;2023-02-15T09:22:28;6.40;99.90
15625;DHT22;7912;51.376;6.126;2023-02-15T09:24:58;6.50;99.90
15625;DHT22;7912;51.376;6.126;2023-02-15T09:27:44;6.50;99.90
15625;DHT22;7912;51.376;6.126;2023-02-15T09:33:16;6.80;99.90
15625;DHT22;7912;51.376;6.126;2023-02-15T09:35:43;7.00;99.90
15625;DHT22;7912;51.376;6.126;2023-02-15T09:38:10;7.10;99.90
15625;DHT22;7912;51.376;6.126;2023-02-15T09:45:16;7.40;99.90
15625;DHT22;7912;51.376;6.126;2023-02-15T09:48:13;7.60;99.90
15625;DHT22;7912;51.376;6.126;2023-02-15T09:51:11;7.70;99.90
15625;DHT22;7912;51.376;6.126;2023-02-15T09:54:22;7.90;99.90
15625;DHT22;7912;51.376;6.126;2023-02-15T09:57:47;8.10;99.90
15625;DHT22;7912;51.376;6.126;2023-02-15T10:12:38;8.70;99.90
15625;DHT22;7912;51.376;6.126;2023-02-15T10:26:47;9.30;99.90
15625;DHT22;7912;51.376;6.126;2023-02-15T10:32:01;9.60;99.90
15625;DHT22;7912;51.376;6.126;2023-02-15T10:34:39;9.80;99.90
15625;DHT22;7912;51.376;6.126;2023-02-15T10:40:28;10.40;99.90
15625;DHT22;7912;51.376;6.126;2023-02-15T10:43:08;10.80;99.90
15625;DHT22;7912;51.376;6.126;2023-02-15T10:52:57;12.10;99.90
15625;DHT22;7912;51.376;6.126;2023-02-15T11:08:09;14.30;99.90
15625;DHT22;7912;51.376;6.126;2023-02-15T11:10:54;14.60;99.90
15625;DHT22;7912;51.376;6.126;2023-02-15T11:13:39;14.90;99.90
15625;DHT22;7912;51.376;6.126;2023-02-15T11:16:19;15.10;99.90
15625;DHT22;7912;51.376;6.126;2023-02-15T11:18:58;15.30;99.90
15625;DHT22;7912;51.376;6.126;2023-02-15T11:21:40;15.50;99.90
15625;DHT22;7912;51.376;6.126;2023-02-15T11:24:16;15.70;99.90
15625;DHT22;7912;51.376;6.126;2023-02-15T11:29:59;16.00;99.90
15625;DHT22;7912;51.376;6.126;2023-02-15T11:32:33;16.30;99.90
15625;DHT22;7912;51.376;6.126;2023-02-15T11:37:50;16.80;99.90
15625;DHT22;7912;51.376;6.126;2023-02-15T11:40:30;17.00;99.90
15625;DHT22;7912;51.376;6.126;2023-02-15T11:43:03;17.30;99.40
15625;DHT22;7912;51.376;6.126;2023-02-15T11:45:37;17.50;99.40
15625;DHT22;7912;51.376;6.126;2023-02-15T11:48:12;17.60;98.90
15625;DHT22;7912;51.376;6.126;2023-02-15T11:50:42;17.80;97.70
15625;DHT22;7912;51.376;6.126;2023-02-15T11:53:16;18.00;97.60
15625;DHT22;7912;51.376;6.126;2023-02-15T11:55:48;18.20;96.90
15625;DHT22;7912;51.376;6.126;2023-02-15T12:01:20;18.50;96.00
15625;DHT22;7912;51.376;6.126;2023-02-15T12:04:01;18.70;95.50
15625;DHT22;7912;51.376;6.126;2023-02-15T12:10:19;19.10;94.90
15625;DHT22;7912;51.376;6.126;2023-02-15T12:13:10;19.50;93.20
15625;DHT22;7912;51.376;6.126;2023-02-15T12:15:46;19.70;92.90
15625;DHT22;7912;51.376;6.126;2023-02-15T12:21:16;20.10;91.80
15625;DHT22;7912;51.376;6.126;2023-02-15T12:32:31;20.50;89.30
15625;DHT22;7912;51.376;6.126;2023-02-15T12:35:20;20.70;87.50
15625;DHT22;7912;51.376;6.126;2023-02-15T12:38:23;20.80;85.30
15625;DHT22;7912;51.376;6.126;2023-02-15T12:44:18;20.90;83.60
15625;DHT22;7912;51.376;6.126;2023-02-15T12:51:07;21.00;81.90
15625;DHT22;7912;51.376;6.126;2023-02-15T12:53:37;21.10;82.00
15625;DHT22;7912;51.376;6.126;2023-02-15T12:56:08;21.20;84.10
15625;DHT22;7912;51.376;6.126;2023-02-15T12:59:12;21.20;82.10
15625;DHT22;7912;51.376;6.126;2023-02-15T13:01:42;21.30;77.70
15625;DHT22;7912;51.376;6.126;2023-02-15T13:04:30;21.40;81.00
15625;DHT22;7912;51.376;6.126;2023-02-15T13:07:00;21.40;77.40
15625;DHT22;7912;51.376;6.126;2023-02-15T13:12:22;21.70;77.70
15625;DHT22;7912;51.376;6.126;2023-02-15T13:14:54;21.80;75.80
15625;DHT22;7912;51.376;6.126;2023-02-15T13:17:31;21.80;77.70
15625;DHT22;7912;51.376;6.126;2023-02-15T13:20:04;21.90;76.10
15625;DHT22;7912;51.376;6.126;2023-02-15T13:26:23;22.20;73.90
15625;DHT22;7912;51.376;6.126;2023-02-15T13:29:00;22.30;74.40
15625;DHT22;7912;51.376;6.126;2023-02-15T13:31:35;22.50;74.80
15625;DHT22;7912;51.376;6.126;2023-02-15T13:34:17;22.60;75.00
15625;DHT22;7912;51.376;6.126;2023-02-15T13:40:18;22.90;71.60
15625;DHT22;7912;51.376;6.126;2023-02-15T13:56:12;22.90;69.40
15625;DHT22;7912;51.376;6.126;2023-02-15T14:01:48;22.60;68.10
15625;DHT22;7912;51.376;6.126;2023-02-15T14:04:48;22.50;68.40
15625;DHT22;7912;51.376;6.126;2023-02-15T14:07:39;22.30;68.20
15625;DHT22;7912;51.376;6.126;2023-02-15T14:11:02;22.00;69.70
15625;DHT22;7912;51.376;6.126;2023-02-15T14:14:05;21.80;69.40
15625;DHT22;7912;51.376;6.126;2023-02-15T14:19:57;21.70;72.60
15625;DHT22;7912;51.376;6.126;2023-02-15T14:28:12;21.60;69.70
15625;DHT22;7912;51.376;6.126;2023-02-15T14:30:45;21.60;70.20
15625;DHT22;7912;51.376;6.126;2023-02-15T14:36:16;21.40;71.50
15625;DHT22;7912;51.376;6.126;2023-02-15T14:43:11;21.30;70.20
15625;DHT22;7912;51.376;6.126;2023-02-15T14:48:48;21.20;72.20
15625;DHT22;7912;51.376;6.126;2023-02-15T14:54:07;21.10;71.60
15625;DHT22;7912;51.376;6.126;2023-02-15T14:56:36;21.00;73.00
15625;DHT22;7912;51.376;6.126;2023-02-15T14:59:23;21.00;73.00
15625;DHT22;7912;51.376;6.126;2023-02-15T15:01:57;20.90;72.20
15625;DHT22;7912;51.376;6.126;2023-02-15T15:04:37;20.90;72.90
15625;DHT22;7912;51.376;6.126;2023-02-15T15:07:20;20.80;73.70
15625;DHT22;7912;51.376;6.126;2023-02-15T15:12:45;20.70;71.80
15625;DHT22;7912;51.376;6.126;2023-02-15T15:15:34;20.60;72.70
15625;DHT22;7912;51.376;6.126;2023-02-15T15:18:44;20.50;71.90
15625;DHT22;7912;51.376;6.126;2023-02-15T15:48:41;18.50;79.10
15625;DHT22;7912;51.376;6.126;2023-02-15T15:59:33;17.90;81.40
15625;DHT22;7912;51.376;6.126;2023-02-15T16:02:14;17.70;82.50
15625;DHT22;7912;51.376;6.126;2023-02-15T16:04:46;17.60;83.30
15625;DHT22;7912;51.376;6.126;2023-02-15T16:10:03;17.30;84.60
15625;DHT22;7912;51.376;6.126;2023-02-15T16:12:35;17.20;85.40
15625;DHT22;7912;51.376;6.126;2023-02-15T16:15:18;17.00;85.80
15625;DHT22;7912;51.376;6.126;2023-02-15T16:17:55;16.90;86.40
15625;DHT22;7912;51.376;6.126;2023-02-15T16:20:26;16.80;87.10
15625;DHT22;7912;51.376;6.126;2023-02-15T16:23:32;16.60;87.50
15625;DHT22;7912;51.376;6.126;2023-02-15T16:26:39;16.50;88.50
15625;DHT22;7912;51.376;6.126;2023-02-15T16:29:28;16.40;89.20
15625;DHT22;7912;51.376;6.126;2023-02-15T16:32:03;16.30;89.50
15625;DHT22;7912;51.376;6.126;2023-02-15T16:34:33;16.10;90.10
15625;DHT22;7912;51.376;6.126;2023-02-15T16:37:22;16.00;90.20
15625;DHT22;7912;51.376;6.126;2023-02-15T16:39:55;15.90;90.60
15625;DHT22;7912;51.376;6.126;2023-02-15T16:42:23;15.80;90.60
15625;DHT22;7912;51.376;6.126;2023-02-15T16:44:55;15.70;90.90
15625;DHT22;7912;51.376;6.126;2023-02-15T16:47:35;15.60;91.10
15625;DHT22;7912;51.376;6.126;2023-02-15T16:50:37;15.50;91.30
15625;DHT22;7912;51.376;6.126;2023-02-15T16:53:28;15.40;91.60
15625;DHT22;7912;51.376;6.126;2023-02-15T16:56:02;15.30;91.90
15625;DHT22;7912;51.376;6.126;2023-02-15T17:05:53;15.00;92.50
15625;DHT22;7912;51.376;6.126;2023-02-15T17:08:27;14.90;92.80
15625;DHT22;7912;51.376;6.126;2023-02-15T17:25:37;14.40;93.80
15625;DHT22;7912;51.376;6.126;2023-02-15T17:28:17;14.20;94.20
15625;DHT22;7912;51.376;6.126;2023-02-15T17:30:47;14.10;94.30
15625;DHT22;7912;51.376;6.126;2023-02-15T17:41:37;13.80;94.90
15625;DHT22;7912;51.376;6.126;2023-02-15T17:44:04;13.70;94.80
15625;DHT22;7912;51.376;6.126;2023-02-15T17:46:36;13.60;95.00
15625;DHT22;7912;51.376;6.126;2023-02-15T17:49:04;13.60;95.40
15625;DHT22;7912;51.376;6.126;2023-02-15T17:55:41;13.40;96.10
15625;DHT22;7912;51.376;6.126;2023-02-15T17:58:19;13.30;95.90
15625;DHT22;7912;51.376;6.126;2023-02-15T18:04:48;13.10;96.70
15625;DHT22;7912;51.376;6.126;2023-02-15T18:07:33;13.10;96.50
15625;DHT22;7912;51.376;6.126;2023-02-15T18:10:19;13.00;96.80
15625;DHT22;7912;51.376;6.126;2023-02-15T18:13:05;12.90;97.10
15625;DHT22;7912;51.376;6.126;2023-02-15T18:15:32;12.80;97.30
15625;DHT22;7912;51.376;6.126;2023-02-15T18:18:01;12.70;97.50
15625;DHT22;7912;51.376;6.126;2023-02-15T18:20:35;12.70;97.90
15625;DHT22;7912;51.376;6.126;2023-02-15T18:23:02;12.60;98.20
15625;DHT22;7912;51.376;6.126;2023-02-15T18:25:30;12.50;98.20
15625;DHT22;7912;51.376;6.126;2023-02-15T18:27:57;12.50;98.40
15625;DHT22;7912;51.376;6.126;2023-02-15T18:37:25;12.30;99.70
15625;DHT22;7912;51.376;6.126;2023-02-15T18:39:56;12.20;99.50
15625;DHT22;7912;51.376;6.126;2023-02-15T18:42:33;12.20;99.70
15625;DHT22;7912;51.376;6.126;2023-02-15T18:50:48;12.00;99.90
15625;DHT22;7912;51.376;6.126;2023-02-15T18:53:20;11.90;99.90
15625;DHT22;7912;51.376;6.126;2023-02-15T18:59:30;11.70;99.90
15625;DHT22;7912;51.376;6.126;2023-02-15T19:01:58;11.60;99.90
15625;DHT22;7912;51.376;6.126;2023-02-15T19:04:27;11.50;99.90
15625;DHT22;7912;51.376;6.126;2023-02-15T19:06:54;11.40;99.90
15625;DHT22;7912;51.376;6.126;2023-02-15T19:09:43;11.40;99.90
15625;DHT22;7912;51.376;6.126;2023-02-15T19:12:14;11.30;99.90
15625;DHT22;7912;51.376;6.126;2023-02-15T19:14:41;11.20;99.90
15625;DHT22;7912;51.376;6.126;2023-02-15T19:17:17;11.20;99.90
15625;DHT22;7912;51.376;6.126;2023-02-15T19:19:46;11.10;99.90
15625;DHT22;7912;51.376;6.126;2023-02-15T19:22:25;11.10;99.90
15625;DHT22;7912;51.376;6.126;2023-02-15T19:24:59;11.00;99.90
15625;DHT22;7912;51.376;6.126;2023-02-15T19:27:29;10.90;99.90
15625;DHT22;7912;51.376;6.126;2023-02-15T19:30:03;10.90;99.90
15625;DHT22;7912;51.376;6.126;2023-02-15T19:32:39;10.90;99.90
15625;DHT22;7912;51.376;6.126;2023-02-15T19:35:13;10.80;99.90
15625;DHT22;7912;51.376;6.126;2023-02-15T19:37:43;10.80;99.90
15625;DHT22;7912;51.376;6.126;2023-02-15T19:40:23;10.70;99.90
15625;DHT22;7912;51.376;6.126;2023-02-15T19:42:52;10.70;99.90
15625;DHT22;7912;51.376;6.126;2023-02-15T19:45:27;10.70;99.90
15625;DHT22;7912;51.376;6.126;2023-02-15T19:47:56;10.60;99.90
15625;DHT22;7912;51.376;6.126;2023-02-15T19:50:25;10.50;99.90
15625;DHT22;7912;51.376;6.126;2023-02-15T19:52:55;10.50;99.90
15625;DHT22;7912;51.376;6.126;2023-02-15T19:57:53;10.50;99.90
15625;DHT22;7912;51.376;6.126;2023-02-15T20:00:24;10.40;99.90
15625;DHT22;7912;51.376;6.126;2023-02-15T20:11:46;10.40;99.90
15625;DHT22;7912;51.376;6.126;2023-02-15T20:14:15;10.30;99.90
15625;DHT22;7912;51.376;6.126;2023-02-15T20:16:43;10.30;99.90
15625;DHT22;7912;51.376;6.126;2023-02-15T20:19:10;10.30;99.90
15625;DHT22;7912;51.376;6.126;2023-02-15T20:21:40;10.20;99.90
15625;DHT22;7912;51.376;6.126;2023-02-15T20:24:15;10.20;99.90
15625;DHT22;7912;51.376;6.126;2023-02-15T20:26:53;10.20;99.90
15625;DHT22;7912;51.376;6.126;2023-02-15T20:29:21;10.20;99.90
15625;DHT22;7912;51.376;6.126;2023-02-15T20:31:50;10.20;99.90
15625;DHT22;7912;51.376;6.126;2023-02-15T20:34:20;10.20;99.90
15625;DHT22;7912;51.376;6.126;2023-02-15T20:36:48;10.20;99.90
15625;DHT22;7912;51.376;6.126;2023-02-15T20:39:16;10.10;99.90
15625;DHT22;7912;51.376;6.126;2023-02-15T20:41:46;10.20;99.90
15625;DHT22;7912;51.376;6.126;2023-02-15T20:44:18;10.20;99.90
15625;DHT22;7912;51.376;6.126;2023-02-15T20:46:58;10.20;99.90
15625;DHT22;7912;51.376;6.126;2023-02-15T20:49:26;10.20;99.90
15625;DHT22;7912;51.376;6.126;2023-02-15T20:51:55;10.20;99.90
15625;DHT22;7912;51.376;6.126;2023-02-15T20:54:25;10.20;99.90
15625;DHT22;7912;51.376;6.126;2023-02-15T20:56:55;10.20;99.90
15625;DHT22;7912;51.376;6.126;2023-02-15T20:59:29;10.20;99.90
15625;DHT22;7912;51.376;6.126;2023-02-15T21:02:21;10.20;99.90
15625;DHT22;7912;51.376;6.126;2023-02-15T21:04:49;10.20;99.90
15625;DHT22;7912;51.376;6.126;2023-02-15T21:07:18;10.10;99.90
15625;DHT22;7912;51.376;6.126;2023-02-15T21:09:49;10.10;99.90
15625;DHT22;7912;51.376;6.126;2023-02-15T21:12:18;10.10;99.90
15625;DHT22;7912;51.376;6.126;2023-02-15T21:26:20;9.90;99.90
15625;DHT22;7912;51.376;6.126;2023-02-15T21:28:48;9.80;99.90
15625;DHT22;7912;51.376;6.126;2023-02-15T21:31:25;9.80;99.90
15625;DHT22;7912;51.376;6.126;2023-02-15T21:33:54;9.70;99.90
15625;DHT22;7912;51.376;6.126;2023-02-15T21:36:23;9.70;99.90
15625;DHT22;7912;51.376;6.126;2023-02-15T21:46:36;9.60;99.90
15625;DHT22;7912;51.376;6.126;2023-02-15T21:49:22;9.60;99.90
15625;DHT22;7912;51.376;6.126;2023-02-15T21:56:02;9.50;99.90
15625;DHT22;7912;51.376;6.126;2023-02-15T21:58:35;9.50;99.90
15625;DHT22;7912;51.376;6.126;2023-02-15T22:01:04;9.40;99.90
15625;DHT22;7912;51.376;6.126;2023-02-15T22:03:35;9.40;99.90
15625;DHT22;7912;51.376;6.126;2023-02-15T22:06:04;9.40;99.90
15625;DHT22;7912;51.376;6.126;2023-02-15T22:08:32;9.40;99.90
15625;DHT22;7912;51.376;6.126;2023-02-15T22:11:00;9.40;99.90
15625;DHT22;7912;51.376;6.126;2023-02-15T22:13:30;9.40;99.90
15625;DHT22;7912;51.376;6.126;2023-02-15T22:16:01;9.40;99.90
15625;DHT22;7912;51.376;6.126;2023-02-15T22:18:32;9.40;99.90
15625;DHT22;7912;51.376;6.126;2023-02-15T22:21:00;9.40;99.90
15625;DHT22;7912;51.376;6.126;2023-02-15T22:23:30;9.40;99.90
15625;DHT22;7912;51.376;6.126;2023-02-15T22:26:22;9.40;99.90
15625;DHT22;7912;51.376;6.126;2023-02-15T22:28:50;9.40;99.90
15625;DHT22;7912;51.376;6.126;2023-02-15T22:31:22;9.40;99.90
15625;DHT22;7912;51.376;6.126;2023-02-15T22:33:49;9.40;99.90
15625;DHT22;7912;51.376;6.126;2023-02-15T22:36:28;9.30;99.90
15625;DHT22;7912;51.376;6.126;2023-02-15T22:55:18;9.00;99.90
15625;DHT22;7912;51.376;6.126;2023-02-15T22:57:50;9.00;99.90
15625;DHT22;7912;51.376;6.126;2023-02-15T23:00:26;8.90;99.90
15625;DHT22;7912;51.376;6.126;2023-02-15T23:02:57;8.90;99.90